createdAt,value
2019-04-07T00:01:10.592Z,89.93
2019-04-07T00:03:38.112Z,89.87
2019-04-07T00:06:05.551Z,90.08
2019-04-07T00:08:32.980Z,89.52
2019-04-07T00:11:00.487Z,89.70
2019-04-07T00:13:28.202Z,89.81
2019-04-07T00:15:55.786Z,89.89
2019-04-07T00:18:24.203Z,90.27
2019-04-07T00:20:51.632Z,90.75
2019-04-07T00:23:19.032Z,90.15
2019-04-07T00:25:46.768Z,90.41
2019-04-07T00:28:14.378Z,89.91
2019-04-07T00:30:42.409Z,90.12
2019-04-07T00:33:10.117Z,90.24
2019-04-07T00:35:37.650Z,90.13
2019-04-07T00:38:05.137Z,90.43
2019-04-07T00:40:32.512Z,90.40
2019-04-07T00:42:59.953Z,90.26
2019-04-07T00:45:27.354Z,90.47
2019-04-07T00:47:54.797Z,90.43
2019-04-07T00:50:22.264Z,90.56
2019-04-07T00:52:50.203Z,90.71
2019-04-07T00:55:17.720Z,90.49
2019-04-07T00:57:45.631Z,91.05
2019-04-07T01:00:16.497Z,90.21
2019-04-07T01:02:44.038Z,90.11
2019-04-07T01:05:11.659Z,90.07
2019-04-07T01:07:41.026Z,90.35
2019-04-07T01:10:08.733Z,90.34
2019-04-07T01:12:36.941Z,90.33
2019-04-07T01:15:07.857Z,90.10
2019-04-07T01:17:35.367Z,90.35
2019-04-07T01:20:04.387Z,90.10
2019-04-07T01:22:31.922Z,89.96
2019-04-07T01:24:59.465Z,90.18
2019-04-07T01:27:27.072Z,90.52
2019-04-07T01:29:54.484Z,90.68
2019-04-07T01:32:22.465Z,90.71
2019-04-07T01:34:50.347Z,90.44
2019-04-07T01:37:17.953Z,90.13
2019-04-07T01:39:45.833Z,89.84
2019-04-07T01:42:22.921Z,90.46
2019-04-07T01:45:12.743Z,90.08
2019-04-07T01:47:55.192Z,90.50
2019-04-07T01:50:41.775Z,89.93
2019-04-07T01:53:25.416Z,89.87
2019-04-07T01:56:05.438Z,89.87
2019-04-07T01:58:56.116Z,90.38
2019-04-07T02:01:43.904Z,91.46
2019-04-07T02:04:29.417Z,91.69
2019-04-07T02:07:16.382Z,91.34
2019-04-07T02:10:02.542Z,92.66
2019-04-07T02:12:53.160Z,93.28
2019-04-07T02:15:35.878Z,92.81
2019-04-07T02:18:25.748Z,92.46
2019-04-07T02:21:03.417Z,91.13
2019-04-07T02:24:00.039Z,90.59
2019-04-07T02:26:36.975Z,90.74
2019-04-07T02:29:24.628Z,90.47
2019-04-07T02:32:05.462Z,90.60
2019-04-07T02:34:43.944Z,90.77
2019-04-07T02:37:31.331Z,90.81
2019-04-07T02:40:31.174Z,91.27
2019-04-07T02:43:31.058Z,91.16
2019-04-07T02:46:31.286Z,90.97
2019-04-07T02:49:21.157Z,90.89
2019-04-07T02:52:16.867Z,91.44
2019-04-07T02:55:04.503Z,92.11
2019-04-07T02:57:44.541Z,91.50
2019-04-07T03:00:44.483Z,90.88
2019-04-07T03:03:31.118Z,90.71
2019-04-07T03:06:37.475Z,90.69
2019-04-07T03:08:59.738Z,90.59
2019-04-07T03:11:56.414Z,90.73
2019-04-07T03:14:50.617Z,90.69
2019-04-07T03:17:52.674Z,90.59
2019-04-07T03:20:26.952Z,90.70
2019-04-07T03:23:14.712Z,90.80
2019-04-07T03:25:55.008Z,90.65
2019-04-07T03:28:35.220Z,91.48
2019-04-07T03:31:22.435Z,91.71
2019-04-07T03:34:14.515Z,91.95
2019-04-07T03:37:19.084Z,91.47
2019-04-07T03:39:49.845Z,91.25
2019-04-07T03:42:38.459Z,91.10
2019-04-07T03:45:28.677Z,90.94
2019-04-07T03:48:06.901Z,91.12
2019-04-07T03:50:40.919Z,91.42
2019-04-07T03:53:27.118Z,91.30
2019-04-07T03:56:17.062Z,90.83
2019-04-07T03:58:53.828Z,91.11
2019-04-07T04:01:41.459Z,90.83
2019-04-07T04:04:31.476Z,91.09
2019-04-07T04:07:26.590Z,90.94
2019-04-07T04:10:17.807Z,90.86
2019-04-07T04:13:05.151Z,90.64
2019-04-07T04:15:41.553Z,90.77
2019-04-07T04:18:09.587Z,90.87
2019-04-07T04:20:37.355Z,90.81
2019-04-07T04:23:05.838Z,91.19
2019-04-07T04:25:34.094Z,91.49
2019-04-07T04:28:01.700Z,91.02
2019-04-07T04:30:29.921Z,90.67
2019-04-07T04:32:57.477Z,91.12
2019-04-07T04:35:24.902Z,91.08
2019-04-07T04:37:53.925Z,90.69
2019-04-07T04:40:22.232Z,90.53
2019-04-07T04:42:50.417Z,90.64
2019-04-07T04:45:18.029Z,90.78
2019-04-07T04:47:46.340Z,91.24
2019-04-07T04:50:14.801Z,91.46
2019-04-07T04:52:42.807Z,91.00
2019-04-07T04:55:11.236Z,91.03
2019-04-07T04:57:38.828Z,90.94
2019-04-07T05:00:06.441Z,91.14
2019-04-07T05:02:33.873Z,91.04
2019-04-07T05:05:02.454Z,90.96
2019-04-07T05:07:30.190Z,90.77
2019-04-07T05:09:57.728Z,90.24
2019-04-07T05:12:25.217Z,89.91
2019-04-07T05:14:53.644Z,89.39
2019-04-07T05:17:21.092Z,88.81
2019-04-07T05:19:48.481Z,87.96
2019-04-07T05:22:16.708Z,87.08
2019-04-07T05:24:44.312Z,86.19
2019-04-07T05:27:11.694Z,85.52
2019-04-07T05:29:39.134Z,84.42
2019-04-07T05:32:06.882Z,84.02
2019-04-07T05:34:34.583Z,84.11
2019-04-07T05:37:02.194Z,83.56
2019-04-07T05:39:29.827Z,83.31
2019-04-07T05:41:57.200Z,83.22
2019-04-07T05:44:24.837Z,82.28
2019-04-07T05:46:52.824Z,82.18
2019-04-07T05:49:22.578Z,80.87
2019-04-07T05:51:50.111Z,81.17
2019-04-07T05:54:19.783Z,81.91
2019-04-07T05:56:47.013Z,81.26
2019-04-07T05:59:14.775Z,80.38
2019-04-07T06:01:43.053Z,78.77
2019-04-07T06:04:14.325Z,77.91
2019-04-07T06:06:41.763Z,77.23
2019-04-07T06:09:09.465Z,75.86
2019-04-07T06:11:38.911Z,75.91
2019-04-07T06:14:06.316Z,74.97
2019-04-07T06:16:34.364Z,74.37
2019-04-07T06:19:06.463Z,73.74
2019-04-07T06:21:31.266Z,72.58
2019-04-07T06:24:00.625Z,72.47
2019-04-07T06:26:28.105Z,72.71
2019-04-07T06:28:58.500Z,70.40
2019-04-07T06:31:26.305Z,68.61
2019-04-07T06:33:55.074Z,68.91
2019-04-07T06:36:25.461Z,67.63
2019-04-07T06:38:52.916Z,68.40
2019-04-07T06:41:21.762Z,67.48
2019-04-07T06:43:49.663Z,65.22
2019-04-07T06:46:39.301Z,65.21
2019-04-07T06:49:15.315Z,65.86
2019-04-07T06:52:03.599Z,65.59
2019-04-07T06:54:50.122Z,67.59
2019-04-07T06:57:37.731Z,67.09
2019-04-07T07:00:25.675Z,65.70
2019-04-07T07:03:11.686Z,64.66
2019-04-07T07:06:11.103Z,63.82
2019-04-07T07:08:46.799Z,61.27
2019-04-07T07:11:40.396Z,62.46
2019-04-07T07:14:30.342Z,60.31
2019-04-07T07:17:04.053Z,61.05
2019-04-07T07:19:41.206Z,59.83
2019-04-07T07:22:14.818Z,58.40
2019-04-07T07:24:41.721Z,57.93
2019-04-07T07:27:11.274Z,58.51
2019-04-07T07:29:38.715Z,57.73
2019-04-07T07:32:06.461Z,58.13
2019-04-07T07:34:35.856Z,56.41
2019-04-07T07:37:04.054Z,56.12
2019-04-07T07:39:31.614Z,53.73
2019-04-07T07:41:59.371Z,52.39
2019-04-07T07:44:27.734Z,54.54
2019-04-07T07:46:55.528Z,54.54
2019-04-07T07:49:22.946Z,52.56
2019-04-07T07:51:50.630Z,52.38
2019-04-07T07:54:18.278Z,53.53
2019-04-07T07:56:48.536Z,52.95
2019-04-07T07:59:15.142Z,52.88
2019-04-07T08:01:46.235Z,52.09
2019-04-07T08:04:12.006Z,49.69
2019-04-07T08:06:41.047Z,49.05
2019-04-07T08:09:13.738Z,48.66
2019-04-07T08:11:38.931Z,49.29
2019-04-07T08:14:06.732Z,50.68
2019-04-07T08:16:34.647Z,49.36
2019-04-07T08:19:03.873Z,46.92
2019-04-07T08:21:31.642Z,47.58
2019-04-07T08:23:59.100Z,49.61
2019-04-07T08:26:26.596Z,50.94
2019-04-07T08:28:54.751Z,50.94
2019-04-07T08:31:22.950Z,51.13
2019-04-07T08:33:51.599Z,51.98
2019-04-07T08:36:19.800Z,51.52
2019-04-07T08:38:47.721Z,51.63
2019-04-07T08:41:16.663Z,49.48
2019-04-07T08:43:44.247Z,50.82
2019-04-07T08:46:12.026Z,49.74
2019-04-07T08:48:40.182Z,48.22
2019-04-07T08:51:08.508Z,48.96
2019-04-07T08:53:36.097Z,49.08
2019-04-07T08:56:06.364Z,49.40
2019-04-07T08:58:36.893Z,48.84
2019-04-07T09:01:03.312Z,48.28
2019-04-07T09:03:31.450Z,48.43
2019-04-07T09:05:59.797Z,48.87
2019-04-07T09:08:27.335Z,47.76
2019-04-07T09:11:09.058Z,48.87
2019-04-07T09:13:37.197Z,48.98
2019-04-07T09:16:41.578Z,49.51
2019-04-07T09:19:27.265Z,52.88
2019-04-07T09:22:14.317Z,51.22
2019-04-07T09:25:10.887Z,49.68
2019-04-07T09:27:52.269Z,49.68
2019-04-07T09:31:00.289Z,50.26
2019-04-07T09:33:48.141Z,50.66
2019-04-07T09:36:51.111Z,51.10
2019-04-07T09:39:55.389Z,51.27
2019-04-07T09:42:42.052Z,52.96
2019-04-07T09:45:30.132Z,50.32
2019-04-07T09:48:19.167Z,50.25
2019-04-07T09:51:20.826Z,50.85
2019-04-07T09:54:11.019Z,49.81
2019-04-07T09:57:19.067Z,50.46
2019-04-07T09:59:55.687Z,50.13
2019-04-07T10:02:42.682Z,51.68
2019-04-07T10:05:30.986Z,51.45
2019-04-07T10:08:20.918Z,50.95
2019-04-07T10:11:19.780Z,51.00
2019-04-07T10:14:10.017Z,51.10
2019-04-07T10:16:53.032Z,51.74
2019-04-07T10:19:55.534Z,51.65
2019-04-07T10:22:46.164Z,51.66
2019-04-07T10:25:29.018Z,50.31
2019-04-07T10:28:07.214Z,51.37
2019-04-07T10:30:58.659Z,50.98
2019-04-07T10:33:46.089Z,49.37
2019-04-07T10:36:33.036Z,52.34
2019-04-07T10:39:39.160Z,51.19
2019-04-07T10:42:38.061Z,50.45
2019-04-07T10:45:26.184Z,50.23
2019-04-07T10:48:28.603Z,50.64
2019-04-07T10:51:10.519Z,50.50
2019-04-07T10:53:56.306Z,50.31
2019-04-07T10:56:48.374Z,50.10
2019-04-07T10:59:37.260Z,50.17
2019-04-07T11:02:13.467Z,50.72
2019-04-07T11:05:02.914Z,48.22
2019-04-07T11:07:43.847Z,47.65
2019-04-07T11:10:35.208Z,48.02
2019-04-07T11:13:49.994Z,47.98
2019-04-07T11:19:45.366Z,46.63
2019-04-07T11:22:44.188Z,47.12
2019-04-07T11:25:37.120Z,47.67
2019-04-07T11:28:39.007Z,46.79
2019-04-07T11:31:29.147Z,46.88
2019-04-07T11:34:22.718Z,46.51
2019-04-07T11:37:25.108Z,46.48
2019-04-07T11:40:24.881Z,47.54
2019-04-07T11:43:02.296Z,46.69
2019-04-07T11:45:53.243Z,47.24
2019-04-07T11:48:30.890Z,47.03
2019-04-07T11:54:41.468Z,47.64
2019-04-07T11:57:41.169Z,46.87
2019-04-07T12:01:12.814Z,46.19
2019-04-07T12:04:31.659Z,47.23
2019-04-07T12:07:30.533Z,46.77
2019-04-07T12:10:40.830Z,47.24
2019-04-07T12:13:34.884Z,45.03
2019-04-07T12:16:30.386Z,45.82
2019-04-07T12:19:56.840Z,45.72
2019-04-07T12:23:04.780Z,46.51
2019-04-07T12:26:05.916Z,44.59
2019-04-07T12:29:12.981Z,45.19
2019-04-07T12:32:04.003Z,45.68
2019-04-07T12:34:45.855Z,48.04
2019-04-07T12:37:30.591Z,43.86
2019-04-07T12:40:39.370Z,44.41
2019-04-07T12:43:07.333Z,44.38
2019-04-07T12:46:19.325Z,46.35
2019-04-07T12:49:16.408Z,47.17
2019-04-07T12:52:03.106Z,41.12
2019-04-07T12:55:19.289Z,41.52
2019-04-07T12:58:28.740Z,42.47
2019-04-07T13:01:19.713Z,39.77
2019-04-07T13:04:06.806Z,41.04
2019-04-07T13:07:01.331Z,41.89
2019-04-07T13:09:51.711Z,44.14
2019-04-07T13:12:46.634Z,45.48
2019-04-07T13:15:30.299Z,45.99
2019-04-07T13:18:19.372Z,45.78
2019-04-07T13:21:22.041Z,46.14
2019-04-07T13:24:50.908Z,45.80
2019-04-07T13:27:54.201Z,47.15
2019-04-07T13:30:41.517Z,45.42
2019-04-07T13:35:22.682Z,46.67
2019-04-07T13:40:21.756Z,46.47
2019-04-07T13:43:33.195Z,46.75
2019-04-07T13:46:43.314Z,46.69
2019-04-07T13:49:41.356Z,47.00
2019-04-07T13:52:41.524Z,45.32
2019-04-07T13:55:41.118Z,43.56
2019-04-07T14:03:00.235Z,43.65
2019-04-07T14:04:59.910Z,44.97
2019-04-07T14:08:52.996Z,44.96
2019-04-07T14:12:10.054Z,45.72
2019-04-07T14:18:17.442Z,47.27
2019-04-07T14:21:14.807Z,47.42
2019-04-07T14:24:14.414Z,46.22
2019-04-07T14:26:51.937Z,46.20
2019-04-07T14:29:46.041Z,45.93
2019-04-07T14:32:27.353Z,46.22
2019-04-07T14:35:18.418Z,49.00
2019-04-07T14:41:29.938Z,46.06
2019-04-07T14:44:16.052Z,45.93
2019-04-07T14:47:12.830Z,47.32
2019-04-07T14:50:50.425Z,45.54
2019-04-07T14:53:43.145Z,45.90
2019-04-07T14:56:50.833Z,45.67
2019-04-07T14:59:38.420Z,46.70
2019-04-07T15:02:10.559Z,47.42
2019-04-07T15:04:47.735Z,46.25
2019-04-07T15:07:34.562Z,46.61
2019-04-07T15:10:12.385Z,45.95
2019-04-07T15:12:55.625Z,44.71
2019-04-07T15:15:23.688Z,44.36
2019-04-07T15:18:16.499Z,45.38
2019-04-07T15:20:47.384Z,46.12
2019-04-07T15:23:31.909Z,44.84
2019-04-07T15:25:59.069Z,43.58
2019-04-07T15:28:31.422Z,44.08
2019-04-07T15:31:06.081Z,45.04
2019-04-07T15:33:39.566Z,45.98
2019-04-07T15:36:10.783Z,45.26
2019-04-07T15:38:41.435Z,44.91
2019-04-07T15:41:19.079Z,44.97
2019-04-07T15:43:48.880Z,44.61
2019-04-07T15:46:19.552Z,45.09
2019-04-07T15:49:07.895Z,45.42
2019-04-07T15:51:37.717Z,46.87
2019-04-07T15:56:59.960Z,46.67
2019-04-07T15:59:34.168Z,46.91
2019-04-07T16:02:13.480Z,46.25
2019-04-07T16:04:49.391Z,45.99
2019-04-07T16:07:59.292Z,46.54
2019-04-07T16:10:23.921Z,45.33
2019-04-07T16:12:59.419Z,46.50
2019-04-07T16:15:34.064Z,46.18
2019-04-07T16:18:04.771Z,45.57
2019-04-07T16:20:37.254Z,46.00
2019-04-07T16:23:05.883Z,46.06
2019-04-07T16:25:40.217Z,46.20
2019-04-07T16:28:11.378Z,46.33
2019-04-07T16:30:39.449Z,46.42
2019-04-07T16:33:07.739Z,46.92
2019-04-07T16:35:36.523Z,46.38
2019-04-07T16:38:05.273Z,46.05
2019-04-07T16:40:33.905Z,46.16
2019-04-07T16:43:11.531Z,47.02
2019-04-07T16:45:33.953Z,46.04
2019-04-07T16:48:04.504Z,46.75
2019-04-07T16:50:31.963Z,47.34
2019-04-07T16:53:06.552Z,47.79
2019-04-07T16:55:39.963Z,47.46
2019-04-07T16:58:17.757Z,47.98
2019-04-07T17:00:49.696Z,48.73
2019-04-07T17:03:24.053Z,48.51
2019-04-07T17:05:57.528Z,47.96
2019-04-07T17:08:24.970Z,48.17
2019-04-07T17:10:54.477Z,48.92
2019-04-07T17:13:34.504Z,49.46
2019-04-07T17:15:54.079Z,49.22
2019-04-07T17:18:36.856Z,48.98
2019-04-07T17:21:10.317Z,49.08
2019-04-07T17:23:39.614Z,48.66
2019-04-07T17:26:11.640Z,49.64
2019-04-07T17:28:44.434Z,50.38
2019-04-07T17:31:11.871Z,49.55
2019-04-07T17:33:39.942Z,50.19
2019-04-07T17:36:07.979Z,50.31
2019-04-07T17:38:51.942Z,50.90
2019-04-07T17:41:20.184Z,51.12
2019-04-07T17:44:22.401Z,51.20
2019-04-07T17:47:00.568Z,51.19
2019-04-07T17:49:59.227Z,51.78
2019-04-07T17:53:14.028Z,52.54
2019-04-07T17:55:58.958Z,52.25
2019-04-07T17:58:44.221Z,51.90
2019-04-07T18:01:36.047Z,52.05
2019-04-07T18:04:29.227Z,52.34
2019-04-07T18:07:15.083Z,52.01
2019-04-07T18:10:06.907Z,52.14
2019-04-07T18:12:51.558Z,52.58
2019-04-07T18:15:42.073Z,52.84
2019-04-07T18:18:28.263Z,53.04
2019-04-07T18:21:16.863Z,53.24
2019-04-07T18:24:06.445Z,53.28
2019-04-07T18:27:01.632Z,53.35
2019-04-07T18:29:46.028Z,53.48
2019-04-07T18:32:27.762Z,53.71
2019-04-07T18:35:23.882Z,53.84
2019-04-07T18:41:16.712Z,54.21
2019-04-07T18:44:06.956Z,54.53
2019-04-07T18:46:50.160Z,54.58
2019-04-07T18:49:35.493Z,54.83
2019-04-07T18:52:27.689Z,54.96
2019-04-07T18:55:13.978Z,55.38
2019-04-07T18:57:50.864Z,55.97
2019-04-07T19:00:39.215Z,56.15
2019-04-07T19:03:29.946Z,56.39
2019-04-07T19:06:20.397Z,56.75
2019-04-07T19:09:10.101Z,56.98
2019-04-07T19:12:07.560Z,57.39
2019-04-07T19:14:47.283Z,57.91
2019-04-07T19:17:34.904Z,58.95
2019-04-07T19:20:22.880Z,59.29
2019-04-07T19:23:16.442Z,58.79
2019-04-07T19:26:16.423Z,58.89
2019-04-07T19:28:56.329Z,59.13
2019-04-07T19:31:39.748Z,60.75
2019-04-07T19:34:43.178Z,61.87
2019-04-07T19:37:34.717Z,62.38
2019-04-07T19:40:10.067Z,63.48
2019-04-07T19:43:05.826Z,63.93
2019-04-07T19:45:55.265Z,64.68
2019-04-07T19:48:57.707Z,65.34
2019-04-07T19:52:03.287Z,63.85
2019-04-07T19:55:01.595Z,64.87
2019-04-07T19:57:50.992Z,66.13
2019-04-07T20:00:37.240Z,66.95
2019-04-07T20:03:24.177Z,66.96
2019-04-07T20:06:12.889Z,67.53
2019-04-07T20:08:57.854Z,67.87
2019-04-07T20:11:48.272Z,68.61
2019-04-07T20:14:45.108Z,68.92
2019-04-07T20:17:21.070Z,69.42
2019-04-07T20:20:04.215Z,69.41
2019-04-07T20:22:44.508Z,69.97
2019-04-07T20:25:25.157Z,70.85
2019-04-07T20:28:09.758Z,71.01
2019-04-07T20:30:48.576Z,71.48
2019-04-07T20:33:38.057Z,71.28
2019-04-07T20:36:40.778Z,71.26
2019-04-07T20:39:21.680Z,70.77
2019-04-07T20:42:18.008Z,70.83
2019-04-07T20:45:03.436Z,71.22
2019-04-07T20:47:34.983Z,71.29
2019-04-07T20:50:14.286Z,71.46
2019-04-07T20:52:49.198Z,71.75
2019-04-07T20:55:37.445Z,72.33
2019-04-07T20:58:41.621Z,72.81
2019-04-07T21:01:21.204Z,72.83
2019-04-07T21:04:12.863Z,72.65
2019-04-07T21:07:05.971Z,73.30
2019-04-07T21:09:51.673Z,73.41
2019-04-07T21:12:45.451Z,73.63
2019-04-07T21:15:43.167Z,74.21
2019-04-07T21:18:24.033Z,74.21
2019-04-07T21:21:02.732Z,74.72
2019-04-07T21:23:49.816Z,75.04
2019-04-07T21:26:37.151Z,75.70
2019-04-07T21:29:14.878Z,75.86
2019-04-07T21:32:01.757Z,75.92
2019-04-07T21:34:44.982Z,76.36
2019-04-07T21:37:26.149Z,76.47
2019-04-07T21:40:14.356Z,76.61
2019-04-07T21:43:00.516Z,77.43
2019-04-07T21:45:50.404Z,77.86
2019-04-07T21:48:47.467Z,77.81
2019-04-07T21:51:41.034Z,77.37
2019-04-07T21:54:16.015Z,77.44
2019-04-07T21:57:02.332Z,77.47
2019-04-07T21:59:36.306Z,77.33
2019-04-07T22:02:15.608Z,77.57
2019-04-07T22:05:07.579Z,77.57
2019-04-07T22:07:43.985Z,77.58
2019-04-07T22:10:13.680Z,77.26
2019-04-07T22:12:42.326Z,76.99
2019-04-07T22:15:13.968Z,76.60
2019-04-07T22:17:41.001Z,76.50
2019-04-07T22:20:09.046Z,77.01
2019-04-07T22:22:37.612Z,77.71
2019-04-07T22:25:07.110Z,78.31
2019-04-07T22:27:35.443Z,78.12
2019-04-07T22:30:06.572Z,77.66
2019-04-07T22:32:35.285Z,77.65
2019-04-07T22:35:06.575Z,78.57
2019-04-07T22:37:34.518Z,78.98
2019-04-07T22:40:03.454Z,78.95
2019-04-07T22:42:31.266Z,79.22
2019-04-07T22:44:59.862Z,79.42
2019-04-07T22:47:27.938Z,79.14
2019-04-07T22:49:56.888Z,79.57
2019-04-07T22:52:24.782Z,79.38
2019-04-07T22:54:52.621Z,79.87
2019-04-07T22:57:20.223Z,79.97
2019-04-07T22:59:48.306Z,79.78
2019-04-07T23:02:16.365Z,80.10
2019-04-07T23:04:45.243Z,80.92
2019-04-07T23:07:13.792Z,80.55
2019-04-07T23:09:41.814Z,80.73
2019-04-07T23:12:09.439Z,81.15
2019-04-07T23:14:37.941Z,80.95
2019-04-07T23:17:07.899Z,81.10
2019-04-07T23:19:35.658Z,81.36
2019-04-07T23:22:03.638Z,81.43
2019-04-07T23:24:31.227Z,81.73
2019-04-07T23:26:58.921Z,81.43
2019-04-07T23:29:26.697Z,81.24
2019-04-07T23:31:55.565Z,81.15
2019-04-07T23:34:23.892Z,81.04
2019-04-07T23:36:52.090Z,80.72
2019-04-07T23:39:20.015Z,81.20
2019-04-07T23:41:47.903Z,80.96
2019-04-07T23:44:16.087Z,81.15
2019-04-07T23:46:44.016Z,81.24
2019-04-07T23:49:11.967Z,81.50
2019-04-07T23:51:39.520Z,81.28
2019-04-07T23:54:14.318Z,81.08
2019-04-07T23:56:43.727Z,81.08
2019-04-07T23:59:11.549Z,81.32
